Time;durP1;ratioP1;P1;durP2;ratioP2;P2;SDS_P1;SDS_P2;PMS_P1;PMS_P2;Temp;Humidity;BMP_temperature;BMP_pressure;BME280_temperature;BME280_humidity;BME280_pressure;Samples;Min_cycle;Max_cycle;Signal;HPM_P1;HPM_P2
2022/08/24 00:01:26;;;;;;;2.70;1.90;;;30.90;49.90;;;;;;5043101;28;88883;-52
2022/08/24 00:03:54;;;;;;;4.13;2.37;;;30.90;49.90;;;;;;5042214;28;87014;-52
2022/08/24 00:06:24;;;;;;;3.90;1.70;;;31.00;50.00;;;;;;5042973;28;87289;-52
2022/08/24 00:08:54;;;;;;;3.80;1.77;;;30.90;50.00;;;;;;5041736;28;89993;-52
2022/08/24 00:11:22;;;;;;;2.07;1.67;;;30.90;50.00;;;;;;5041973;28;89823;-52
2022/08/24 00:13:50;;;;;;;1.90;1.53;;;31.00;50.00;;;;;;5026612;28;86803;-52
2022/08/24 00:16:18;;;;;;;2.80;1.83;;;30.90;50.10;;;;;;5042674;28;86916;-52
2022/08/24 00:18:46;;;;;;;2.70;1.50;;;30.90;50.00;;;;;;5042363;28;89144;-52
2022/08/24 00:21:14;;;;;;;2.23;1.17;;;30.90;50.60;;;;;;5041956;28;87814;-52
2022/08/24 00:23:42;;;;;;;1.93;1.03;;;30.90;50.20;;;;;;5042186;28;87047;-52
2022/08/24 00:26:13;;;;;;;1.10;1.00;;;30.90;50.10;;;;;;5042554;28;86361;-52
2022/08/24 00:28:41;;;;;;;2.23;1.17;;;30.90;50.10;;;;;;5034651;28;89172;-52
2022/08/24 00:31:09;;;;;;;1.27;1.00;;;30.90;50.10;;;;;;5041839;28;87835;-51
2022/08/24 00:33:39;;;;;;;2.03;1.20;;;30.90;50.70;;;;;;5041721;28;87819;-52
2022/08/24 00:36:07;;;;;;;2.30;1.33;;;30.90;50.10;;;;;;5042038;28;87029;-52
2022/08/24 00:38:35;;;;;;;1.27;1.10;;;30.90;50.10;;;;;;5042145;28;89237;-52
2022/08/24 00:41:04;;;;;;;1.73;1.20;;;30.90;50.10;;;;;;5041980;28;88962;-52
2022/08/24 00:43:33;;;;;;;1.77;1.10;;;30.80;50.00;;;;;;5042829;28;86911;-52
2022/08/24 00:46:08;;;;;;;1.03;0.87;;;30.90;50.10;;;;;;5042517;28;87082;-52
2022/08/24 00:48:39;;;;;;;2.13;1.13;;;30.90;50.10;;;;;;5041280;27;89208;-52
2022/08/24 00:51:08;;;;;;;1.67;0.97;;;30.90;50.10;;;;;;5042315;28;87981;-52
2022/08/24 00:53:39;;;;;;;1.30;0.90;;;30.90;50.10;;;;;;5042437;28;86866;-52
2022/08/24 00:56:10;;;;;;;2.23;1.10;;;30.90;50.10;;;;;;5041503;28;87952;-52
2022/08/24 00:58:41;;;;;;;1.23;1.00;;;30.90;50.10;;;;;;5041148;28;90162;-53
2022/08/24 01:01:10;;;;;;;1.20;0.80;;;30.90;50.10;;;;;;5040696;28;87461;-52
2022/08/24 01:03:38;;;;;;;0.83;0.60;;;30.80;50.00;;;;;;5041285;28;87128;-52
2022/08/24 01:06:06;;;;;;;0.70;0.70;;;30.90;50.20;;;;;;5041744;28;86924;-53
2022/08/24 01:08:34;;;;;;;1.10;0.90;;;30.90;50.10;;;;;;5041069;28;89122;-53
2022/08/24 01:11:05;;;;;;;1.23;0.80;;;30.80;50.00;;;;;;5041767;28;87616;-52
2022/08/24 01:13:33;;;;;;;2.37;1.00;;;30.80;50.00;;;;;;5041630;28;87097;-53
2022/08/24 01:16:04;;;;;;;1.03;0.70;;;30.80;50.10;;;;;;5041711;28;86301;-53
2022/08/24 01:18:49;;;;;;;0.90;0.63;;;30.90;50.10;;;;;;5040896;28;89255;-53
2022/08/24 01:21:18;;;;;;;1.00;0.70;;;30.80;50.00;;;;;;5041304;28;88861;-53
2022/08/24 01:23:48;;;;;;;0.40;0.40;;;30.80;50.10;;;;;;5040893;28;87982;-53
2022/08/24 01:26:19;;;;;;;1.43;0.60;;;30.80;50.20;;;;;;5040898;28;86963;-52
2022/08/24 01:28:48;;;;;;;1.10;0.90;;;30.80;50.10;;;;;;5040778;28;88295;-52
2022/08/24 01:31:19;;;;;;;0.73;0.60;;;30.80;50.20;;;;;;5040663;28;88756;-53
2022/08/24 01:33:49;;;;;;;0.50;0.50;;;30.80;50.20;;;;;;5040651;28;87903;-53
2022/08/24 01:36:19;;;;;;;0.50;0.50;;;30.80;50.20;;;;;;5041114;28;87109;-52
2022/08/24 01:38:57;;;;;;;1.33;0.83;;;30.70;50.20;;;;;;5040379;28;89073;-52
2022/08/24 01:41:25;;;;;;;1.40;0.80;;;30.70;50.20;;;;;;5040681;28;89112;-52
2022/08/24 01:43:56;;;;;;;1.13;0.50;;;30.70;50.20;;;;;;5041606;28;86949;-52
2022/08/24 01:46:24;;;;;;;1.23;0.70;;;30.70;50.20;;;;;;5040623;28;87026;-53
2022/08/24 01:48:52;;;;;;;2.50;0.83;;;30.70;50.30;;;;;;5041110;28;90214;-53
2022/08/24 01:51:20;;;;;;;1.17;0.93;;;30.70;50.30;;;;;;5040339;28;89809;-52
2022/08/24 01:53:48;;;;;;;2.70;0.80;;;30.70;50.20;;;;;;5040541;28;87122;-53
2022/08/24 01:56:18;;;;;;;1.70;1.03;;;30.70;50.30;;;;;;5041010;28;86893;-53
2022/08/24 01:58:46;;;;;;;2.00;1.03;;;30.70;51.00;;;;;;5041385;28;88067;-52
2022/08/24 02:01:14;;;;;;;0.80;0.80;;;30.70;50.30;;;;;;5043545;27;88824;-53
2022/08/24 02:03:42;;;;;;;3.33;1.50;;;30.70;50.30;;;;;;5044587;28;87955;-53
2022/08/24 02:06:10;;;;;;;2.27;1.27;;;30.70;50.40;;;;;;5044925;28;88416;-53
2022/08/24 02:08:38;;;;;;;1.67;1.10;;;30.70;50.40;;;;;;5032583;28;88282;-53
2022/08/24 02:11:07;;;;;;;2.30;1.10;;;30.70;50.50;;;;;;5044441;28;88796;-53
2022/08/24 02:13:37;;;;;;;1.17;1.03;;;30.70;50.40;;;;;;5042672;28;87979;-53
2022/08/24 02:16:05;;;;;;;2.70;1.60;;;30.70;51.10;;;;;;5044176;28;87016;-53
2022/08/24 02:18:34;;;;;;;2.53;1.70;;;30.70;50.50;;;;;;5043446;28;89226;-53
2022/08/24 02:21:01;;;;;;;6.30;2.17;;;30.70;50.50;;;;;;5042287;28;87898;-52
2022/08/24 02:23:29;;;;;;;3.07;2.00;;;30.70;50.50;;;;;;5041103;28;87150;-53
2022/08/24 02:25:58;;;;;;;4.33;2.33;;;30.70;50.50;;;;;;5039404;27;87099;-52
2022/08/24 02:28:27;;;;;;;2.73;1.70;;;30.70;50.50;;;;;;5050437;27;87877;-52
2022/08/24 02:30:56;;;;;;;2.43;1.70;;;30.70;50.50;;;;;;5048440;27;87817;-52
2022/08/24 02:33:24;;;;;;;3.60;2.30;;;30.70;50.50;;;;;;5051599;27;86998;-53
2022/08/24 02:35:53;;;;;;;3.00;2.20;;;30.70;50.50;;;;;;5047120;27;87079;-53
2022/08/24 02:38:21;;;;;;;2.90;2.13;;;30.70;50.60;;;;;;5056230;27;90051;-53
2022/08/24 02:40:49;;;;;;;4.07;2.73;;;30.70;50.50;;;;;;5050266;27;89801;-53
2022/08/24 02:43:17;;;;;;;4.23;3.27;;;30.60;50.50;;;;;;5042563;27;87634;-52
2022/08/24 02:45:45;;;;;;;3.87;2.57;;;30.70;50.60;;;;;;5047244;27;87999;-53
2022/08/24 02:48:19;;;;;;;3.53;2.70;;;30.70;50.60;;;;;;5054315;27;89157;-53
2022/08/24 02:50:48;;;;;;;4.40;3.07;;;30.70;50.60;;;;;;5045964;27;89063;-53
2022/08/24 02:53:16;;;;;;;3.63;2.70;;;30.70;50.60;;;;;;5060285;27;87078;-53
2022/08/24 02:55:44;;;;;;;3.20;2.57;;;30.70;50.70;;;;;;5050188;27;86380;-53
2022/08/24 02:58:12;;;;;;;6.63;2.80;;;30.70;50.70;;;;;;5053698;27;89286;-53
2022/08/24 03:00:41;;;;;;;4.73;2.90;;;30.60;51.30;;;;;;5050306;27;88854;-53
2022/08/24 03:03:10;;;;;;;6.10;3.47;;;30.60;50.70;;;;;;5051598;27;88092;-53
2022/08/24 03:05:39;;;;;;;3.70;2.57;;;30.60;50.80;;;;;;5047143;27;88182;-53
2022/08/24 03:08:07;;;;;;;2.67;2.40;;;30.60;50.70;;;;;;5040915;27;89241;-53
2022/08/24 03:10:35;;;;;;;5.73;3.47;;;30.60;50.70;;;;;;5051028;27;89060;-53
2022/08/24 03:13:03;;;;;;;5.40;3.07;;;30.60;51.40;;;;;;5041239;28;87031;-53
2022/08/24 03:15:31;;;;;;;5.00;3.20;;;30.60;50.70;;;;;;5041838;28;87044;-53
2022/08/24 03:17:59;;;;;;;3.97;2.77;;;30.60;50.80;;;;;;5043450;27;89146;-50
2022/08/24 03:20:28;;;;;;;4.00;3.17;;;30.60;50.90;;;;;;5049150;27;88885;-51
2022/08/24 03:22:57;;;;;;;2.87;2.47;;;30.60;50.80;;;;;;5046733;27;87174;-51
2022/08/24 03:25:26;;;;;;;4.07;3.10;;;30.60;50.90;;;;;;5043682;28;87462;-50
2022/08/24 03:27:54;;;;;;;3.07;2.33;;;30.60;50.90;;;;;;5040336;28;90026;-49
2022/08/24 03:30:23;;;;;;;5.07;3.40;;;30.60;50.90;;;;;;5042518;28;89773;-50
2022/08/24 03:32:51;;;;;;;4.90;3.00;;;30.60;51.00;;;;;;5042481;28;87142;-50
2022/08/24 03:35:20;;;;;;;4.43;3.00;;;30.60;50.90;;;;;;5041971;28;87034;-50
2022/08/24 03:37:49;;;;;;;3.93;3.20;;;30.70;51.00;;;;;;5042389;28;88053;-50
2022/08/24 03:40:21;;;;;;;5.47;4.10;;;30.70;51.00;;;;;;5042385;28;88678;-50
2022/08/24 03:42:51;;;;;;;4.70;3.57;;;30.70;51.00;;;;;;5043424;28;86906;-50
2022/08/24 03:45:20;;;;;;;8.43;4.60;;;30.70;51.00;;;;;;5043768;28;86244;-50
2022/08/24 03:47:48;;;;;;;8.40;4.30;;;30.70;51.10;;;;;;5043249;28;88015;-50
2022/08/24 03:50:16;;;;;;;7.40;4.63;;;30.80;51.10;;;;;;5043207;28;88955;-49
2022/08/24 03:52:44;;;;;;;8.90;4.27;;;30.80;51.10;;;;;;5043070;28;87948;-49
2022/08/24 03:55:12;;;;;;;5.93;3.77;;;30.80;51.10;;;;;;5043026;28;87057;-49
2022/08/24 03:57:41;;;;;;;8.87;4.33;;;30.80;51.20;;;;;;5042145;28;87982;-49
2022/08/24 04:00:11;;;;;;;8.67;4.63;;;30.80;51.20;;;;;;5041691;28;88899;-50
2022/08/24 04:02:39;;;;;;;5.87;3.80;;;30.80;51.30;;;;;;5042267;28;87157;-51
2022/08/24 04:05:07;;;;;;;6.33;4.37;;;30.90;51.40;;;;;;5042455;28;87297;-49
2022/08/24 04:07:35;;;;;;;9.27;4.93;;;30.80;51.40;;;;;;5042504;28;89063;-49
2022/08/24 04:10:04;;;;;;;6.03;4.70;;;30.90;51.60;;;;;;5042753;28;88940;-50
2022/08/24 04:12:32;;;;;;;9.57;5.43;;;30.90;51.60;;;;;;5041476;28;87172;-52
2022/08/24 04:15:01;;;;;;;8.07;5.37;;;30.90;51.70;;;;;;5040892;28;87239;-52
2022/08/24 04:17:29;;;;;;;6.10;4.67;;;30.90;51.90;;;;;;5041157;28;90191;-53
2022/08/24 04:19:57;;;;;;;8.07;4.43;;;30.90;51.80;;;;;;5042148;28;89842;-53
2022/08/24 04:22:25;;;;;;;7.97;4.30;;;30.90;51.80;;;;;;5042880;27;86975;-53
2022/08/24 04:24:53;;;;;;;8.50;4.13;;;30.80;51.70;;;;;;5038237;28;87044;-53
2022/08/24 04:27:21;;;;;;;8.83;5.00;;;30.80;51.70;;;;;;5040427;28;89040;-53
2022/08/24 04:29:49;;;;;;;5.70;4.43;;;30.80;51.70;;;;;;5041984;28;88910;-53
2022/08/24 04:32:19;;;;;;;6.17;4.23;;;30.70;51.70;;;;;;5041626;28;86956;-53
2022/08/24 04:34:47;;;;;;;7.70;4.17;;;30.70;51.70;;;;;;5042748;28;86353;-54
2022/08/24 04:37:16;;;;;;;5.23;3.87;;;30.70;51.70;;;;;;5042157;28;88540;-53
2022/08/24 04:39:49;;;;;;;13.67;4.67;;;30.70;51.70;;;;;;5040638;28;88832;-53
2022/08/24 04:42:18;;;;;;;8.20;3.90;;;30.60;51.70;;;;;;5042430;27;88697;-53
2022/08/24 04:44:46;;;;;;;7.93;3.60;;;30.70;51.70;;;;;;5041319;28;88561;-54
2022/08/24 04:47:14;;;;;;;5.30;3.50;;;30.70;51.70;;;;;;5042359;28;89047;-54
2022/08/24 04:49:43;;;;;;;7.27;3.67;;;30.70;52.40;;;;;;5042125;28;87854;-54
2022/08/24 04:52:11;;;;;;;5.63;3.23;;;30.60;51.70;;;;;;5042135;28;87005;-54
2022/08/24 04:54:39;;;;;;;6.77;3.10;;;30.60;51.60;;;;;;5041860;28;87033;-54
2022/08/24 04:57:07;;;;;;;5.47;3.40;;;30.60;51.70;;;;;;5041122;28;88039;-53
2022/08/24 04:59:35;;;;;;;3.87;2.83;;;30.60;51.70;;;;;;5041342;28;88927;-54
2022/08/24 05:02:03;;;;;;;7.83;3.80;;;30.60;52.30;;;;;;5041656;28;87149;-53
2022/08/24 05:04:31;;;;;;;5.40;3.30;;;30.60;51.60;;;;;;5042035;28;87015;-53
2022/08/24 05:07:01;;;;;;;7.00;3.97;;;30.60;51.70;;;;;;5040643;28;90134;-54
2022/08/24 05:09:29;;;;;;;4.07;3.20;;;30.60;51.70;;;;;;5040126;28;90070;-54
2022/08/24 05:11:58;;;;;;;3.83;2.67;;;30.70;51.70;;;;;;5040976;28;87075;-54
2022/08/24 05:14:27;;;;;;;4.47;2.50;;;30.60;51.50;;;;;;5041721;28;87149;-54
2022/08/24 05:16:56;;;;;;;2.13;1.90;;;30.70;51.50;;;;;;5041620;28;89132;-54
2022/08/24 05:19:24;;;;;;;6.70;2.40;;;30.80;51.50;;;;;;5041562;28;88816;-54
2022/08/24 05:21:52;;;;;;;4.30;2.40;;;30.80;51.40;;;;;;5041450;28;87020;-54
2022/08/24 05:24:21;;;;;;;2.90;1.83;;;30.80;51.30;;;;;;5041177;28;86228;-53
2022/08/24 05:26:51;;;;;;;2.03;1.57;;;30.90;51.30;;;;;;5039781;28;89365;-54
2022/08/24 05:29:20;;;;;;;2.17;1.50;;;30.90;51.30;;;;;;5040561;28;88997;-54
2022/08/24 05:31:48;;;;;;;2.03;1.83;;;30.90;51.20;;;;;;5040356;28;87921;-53
2022/08/24 05:34:16;;;;;;;3.33;1.60;;;30.90;51.10;;;;;;5040420;28;87089;-53
2022/08/24 05:36:44;;;;;;;4.40;1.67;;;30.90;51.10;;;;;;5041042;28;89121;-54
2022/08/24 05:39:13;;;;;;;4.33;1.60;;;31.00;51.10;;;;;;5041375;28;87833;-54
2022/08/24 05:41:44;;;;;;;5.80;1.90;;;31.00;51.00;;;;;;5040539;28;86996;-54
2022/08/24 05:44:12;;;;;;;2.97;1.80;;;31.00;51.60;;;;;;5038915;28;86977;-53
2022/08/24 05:46:40;;;;;;;3.37;1.60;;;31.00;50.90;;;;;;5040226;28;89104;-54
2022/08/24 05:49:08;;;;;;;1.50;1.30;;;31.10;50.90;;;;;;5041767;28;88710;-54
2022/08/24 05:51:36;;;;;;;1.87;1.40;;;31.10;50.90;;;;;;5039775;28;87177;-53
2022/08/24 05:54:05;;;;;;;1.47;1.20;;;31.10;50.80;;;;;;5041092;28;87060;-55
2022/08/24 05:56:33;;;;;;;1.53;1.20;;;31.10;50.80;;;;;;5040500;28;90091;-54
2022/08/24 05:59:02;;;;;;;2.07;1.40;;;31.00;50.70;;;;;;5040743;28;90030;-53
2022/08/24 06:01:30;;;;;;;1.83;0.90;;;31.10;50.80;;;;;;5041478;28;86945;-55
2022/08/24 06:03:58;;;;;;;1.30;1.20;;;31.10;50.80;;;;;;5040866;28;87149;-53
2022/08/24 06:06:27;;;;;;;1.20;1.10;;;31.10;50.70;;;;;;5040584;28;89218;-53
2022/08/24 06:08:57;;;;;;;4.10;1.10;;;31.10;50.70;;;;;;5040356;28;88999;-53
2022/08/24 06:11:26;;;;;;;4.70;1.97;;;31.10;50.70;;;;;;5039827;28;87043;-54
2022/08/24 06:13:58;;;;;;;2.07;1.13;;;31.10;50.70;;;;;;5041066;28;86338;-53
2022/08/24 06:16:28;;;;;;;2.47;1.27;;;31.10;50.70;;;;;;5040287;28;89206;-54
2022/08/24 06:18:56;;;;;;;1.43;1.17;;;31.10;50.70;;;;;;5040674;28;88806;-53
2022/08/24 06:21:25;;;;;;;1.33;0.93;;;31.10;50.70;;;;;;5040595;28;88893;-54
2022/08/24 06:23:55;;;;;;;1.20;1.00;;;31.10;50.60;;;;;;5031284;28;87270;-54
2022/08/24 06:29:08;;;;;;;0.63;0.60;;;31.20;51.40;;;;;;5039274;28;88866;-52
2022/08/24 06:31:39;;;;;;;0.77;0.77;;;31.20;50.80;;;;;;5040293;28;86934;-52
2022/08/24 06:34:09;;;;;;;1.50;1.10;;;31.10;50.70;;;;;;5036583;28;86943;-52
2022/08/24 06:36:37;;;;;;;1.43;0.90;;;31.20;50.80;;;;;;5031854;28;88107;-52
2022/08/24 06:39:07;;;;;;;2.53;1.00;;;31.20;50.80;;;;;;5040040;28;87727;-52
2022/08/24 06:41:38;;;;;;;0.93;0.87;;;31.20;50.80;;;;;;5040144;28;87228;-52
2022/08/24 06:44:06;;;;;;;1.53;1.03;;;31.30;50.80;;;;;;5039596;28;87214;-52
2022/08/24 06:46:35;;;;;;;1.67;0.83;;;31.20;51.40;;;;;;5039632;27;90054;-52
2022/08/24 06:49:04;;;;;;;2.70;1.00;;;31.30;50.80;;;;;;5043056;28;89762;-52
2022/08/24 06:51:32;;;;;;;1.10;1.00;;;31.30;50.80;;;;;;5043073;28;87056;-52
2022/08/24 06:54:00;;;;;;;4.03;1.00;;;31.30;50.80;;;;;;5043683;27;87264;-53
2022/08/24 06:56:28;;;;;;;0.93;0.80;;;31.30;50.80;;;;;;5043439;28;89084;-53
2022/08/24 06:58:56;;;;;;;3.30;1.23;;;31.30;50.80;;;;;;5041802;28;88812;-53
2022/08/24 07:01:25;;;;;;;1.20;0.77;;;31.30;50.90;;;;;;5043396;28;87128;-53
2022/08/24 07:03:53;;;;;;;1.20;0.93;;;31.30;50.80;;;;;;5044081;28;86341;-51
2022/08/24 07:06:23;;;;;;;2.40;0.87;;;31.30;51.00;;;;;;5043117;28;89095;-51
2022/08/24 07:08:51;;;;;;;2.67;0.80;;;31.30;51.10;;;;;;5043222;28;88876;-51
2022/08/24 07:11:20;;;;;;;1.60;0.77;;;31.30;51.20;;;;;;5040778;28;88052;-52
2022/08/24 07:13:49;;;;;;;0.60;0.50;;;31.30;51.30;;;;;;5041682;28;87045;-53
2022/08/24 07:16:17;;;;;;;5.13;0.80;;;31.20;51.30;;;;;;5042001;27;89272;-52
2022/08/24 07:18:45;;;;;;;1.70;0.80;;;31.30;51.50;;;;;;5037986;28;88795;-54
2022/08/24 07:21:18;;;;;;;1.00;0.90;;;31.30;51.50;;;;;;5043566;27;86955;-52
2022/08/24 07:23:50;;;;;;;0.80;0.80;;;31.30;51.60;;;;;;5043353;28;87052;-52
2022/08/24 07:26:21;;;;;;;1.10;0.67;;;31.30;51.70;;;;;;5042122;28;88129;-52
2022/08/24 07:28:52;;;;;;;0.90;0.83;;;31.30;51.70;;;;;;5042669;28;88896;-52
2022/08/24 07:31:20;;;;;;;1.50;1.20;;;31.30;51.70;;;;;;5057169;27;86914;-52
2022/08/24 07:33:49;;;;;;;0.80;0.50;;;31.30;52.40;;;;;;5041831;28;87058;-52
2022/08/24 07:36:18;;;;;;;0.50;0.50;;;31.30;51.80;;;;;;5039033;28;88927;-52
2022/08/24 07:38:52;;;;;;;0.60;0.60;;;31.30;51.80;;;;;;5041164;28;89835;-52
2022/08/24 07:41:20;;;;;;;0.77;0.60;;;31.30;51.80;;;;;;5042691;27;87169;-52
2022/08/24 07:44:08;;;;;;;1.10;0.70;;;31.30;51.80;;;;;;5029605;28;87007;-52
2022/08/24 07:46:36;;;;;;;0.73;0.43;;;31.20;51.80;;;;;;5042405;28;89058;-52
2022/08/24 07:49:04;;;;;;;1.47;0.87;;;31.30;51.80;;;;;;5041694;28;88819;-52
2022/08/24 07:51:47;;;;;;;0.90;0.80;;;31.20;52.00;;;;;;5042249;28;86997;-52
2022/08/24 07:54:16;;;;;;;1.50;0.60;;;31.20;52.50;;;;;;5041495;28;86486;-53
2022/08/24 07:56:44;;;;;;;0.70;0.67;;;31.20;51.80;;;;;;5041763;28;88024;-52
2022/08/24 07:59:13;;;;;;;0.83;0.47;;;31.20;51.80;;;;;;5041899;28;88915;-53
2022/08/24 08:01:41;;;;;;;1.37;0.70;;;31.10;51.70;;;;;;5041331;28;88113;-53
2022/08/24 08:04:09;;;;;;;1.30;0.63;;;31.20;51.80;;;;;;5047287;27;87639;-53
2022/08/24 08:06:37;;;;;;;1.40;0.63;;;31.20;51.90;;;;;;5060877;27;89068;-52
2022/08/24 08:09:05;;;;;;;0.80;0.60;;;31.20;51.80;;;;;;5061951;27;87774;-53
2022/08/24 08:11:35;;;;;;;0.60;0.50;;;31.20;51.80;;;;;;5031038;27;87100;-53
2022/08/24 08:14:03;;;;;;;0.53;0.53;;;31.20;51.90;;;;;;5022600;28;87523;-53
2022/08/24 08:16:31;;;;;;;0.50;0.50;;;31.20;51.90;;;;;;5034647;27;89204;-53
2022/08/24 08:18:59;;;;;;;1.20;0.50;;;31.20;51.90;;;;;;5063071;27;88882;-53
2022/08/24 08:24:27;;;;;;;0.77;0.50;;;31.20;51.90;;;;;;5042308;28;87847;-53
2022/08/24 08:26:58;;;;;;;0.63;0.57;;;31.20;52.00;;;;;;5041145;28;88884;-52
2022/08/24 08:29:26;;;;;;;2.83;0.70;;;31.20;52.00;;;;;;5041160;28;89509;-52
2022/08/24 08:31:55;;;;;;;1.23;0.47;;;31.20;52.00;;;;;;5040893;28;86990;-52
2022/08/24 08:34:23;;;;;;;1.23;0.70;;;31.20;52.10;;;;;;5039710;28;87072;-52
2022/08/24 08:36:51;;;;;;;1.40;0.53;;;31.20;52.10;;;;;;5040296;28;89084;-52
2022/08/24 08:39:20;;;;;;;1.50;0.80;;;31.20;52.30;;;;;;5040806;28;87768;-52
2022/08/24 08:42:13;;;;;;;0.77;0.77;;;31.20;52.30;;;;;;5040316;28;87027;-52
2022/08/24 08:45:15;;;;;;;0.87;0.60;;;31.10;52.20;;;;;;5036685;28;86240;-52
2022/08/24 08:48:10;;;;;;;0.73;0.63;;;31.10;52.30;;;;;;5032812;28;89478;-52
2022/08/24 08:50:46;;;;;;;0.50;0.50;;;31.10;52.30;;;;;;5038596;28;88856;-52
2022/08/24 08:54:01;;;;;;;1.63;0.40;;;31.10;52.40;;;;;;5039816;28;88035;-53
2022/08/24 08:56:36;;;;;;;1.63;0.60;;;31.10;52.50;;;;;;4967000;28;88499;-52
2022/08/24 08:59:07;;;;;;;0.30;0.30;;;31.10;52.60;;;;;;4974933;28;89127;-52
2022/08/24 09:01:41;;;;;;;0.43;0.43;;;31.00;52.60;;;;;;5012332;28;88905;-53
2022/08/24 09:04:41;;;;;;;0.37;0.37;;;31.00;53.30;;;;;;5042091;28;86958;-52
2022/08/24 09:07:19;;;;;;;0.47;0.40;;;31.00;52.70;;;;;;5042066;28;87042;-53
2022/08/24 09:10:11;;;;;;;2.00;0.50;;;31.00;52.80;;;;;;5041347;28;89174;-53
2022/08/24 09:12:49;;;;;;;0.40;0.33;;;31.00;52.70;;;;;;5021144;28;86436;-52
2022/08/24 09:15:36;;;;;;;0.70;0.47;;;31.00;52.80;;;;;;5022075;28;86843;-53
2022/08/24 09:18:12;;;;;;;1.17;0.30;;;31.00;52.80;;;;;;5029728;28;86957;-53
2022/08/24 09:21:01;;;;;;;0.70;0.40;;;31.00;52.80;;;;;;5040908;28;90464;-53
2022/08/24 09:23:32;;;;;;;5.07;0.60;;;31.00;52.70;;;;;;5041769;28;89887;-54
2022/08/24 09:26:02;;;;;;;0.70;0.47;;;31.00;52.80;;;;;;5041720;28;87156;-53
2022/08/24 09:28:40;;;;;;;0.50;0.50;;;31.00;52.90;;;;;;5042477;28;87057;-52
2022/08/24 09:31:31;;;;;;;0.40;0.40;;;31.00;53.50;;;;;;5041571;28;89055;-52
2022/08/24 09:34:08;;;;;;;1.10;0.87;;;31.00;52.90;;;;;;5036429;28;89105;-52
2022/08/24 09:36:57;;;;;;;2.17;0.73;;;31.00;52.90;;;;;;5037863;28;87009;-53
2022/08/24 09:39:48;;;;;;;0.43;0.43;;;31.00;52.90;;;;;;5036839;28;86352;-53
2022/08/24 09:42:44;;;;;;;0.40;0.40;;;31.10;52.80;;;;;;5039692;27;88980;-52
2022/08/24 09:45:40;;;;;;;0.80;0.40;;;31.10;52.80;;;;;;5038997;28;88885;-53
2022/08/24 09:48:22;;;;;;;2.07;0.60;;;31.10;52.80;;;;;;5039147;28;87951;-53
2022/08/24 09:51:13;;;;;;;0.37;0.37;;;31.10;52.70;;;;;;5039976;28;87257;-53
2022/08/24 09:54:05;;;;;;;0.53;0.50;;;31.10;52.60;;;;;;5029103;28;89389;-52
2022/08/24 09:56:44;;;;;;;0.30;0.30;;;31.10;52.70;;;;;;5036658;28;88777;-51
2022/08/24 09:59:24;;;;;;;0.20;0.20;;;31.10;52.80;;;;;;5040007;28;87027;-52
2022/08/24 10:01:56;;;;;;;0.60;0.50;;;31.10;53.40;;;;;;5037102;28;86928;-51
2022/08/24 10:04:27;;;;;;;0.40;0.40;;;31.10;52.80;;;;;;5038083;28;87991;-51
2022/08/24 10:07:03;;;;;;;0.30;0.30;;;31.10;52.80;;;;;;5037052;28;87736;-51
2022/08/24 10:10:10;;;;;;;2.00;0.73;;;31.10;52.80;;;;;;5037121;28;87408;-51
2022/08/24 10:12:53;;;;;;;0.60;0.60;;;31.10;52.80;;;;;;4986043;28;87106;-51
2022/08/24 10:15:27;;;;;;;0.30;0.30;;;31.10;52.90;;;;;;4983435;28;90048;-51
2022/08/24 10:18:08;;;;;;;0.50;0.40;;;31.10;52.90;;;;;;5004969;28;90009;-51
2022/08/24 10:21:00;;;;;;;1.10;0.70;;;31.10;52.90;;;;;;5020536;28;87060;-51
2022/08/24 10:23:39;;;;;;;0.50;0.50;;;31.10;52.90;;;;;;5023408;28;87058;-51
2022/08/24 10:26:11;;;;;;;3.40;0.40;;;31.10;52.90;;;;;;5023201;28;89131;-51
2022/08/24 10:28:51;;;;;;;0.40;0.40;;;31.10;53.00;;;;;;5023315;28;88947;-51
2022/08/24 10:31:20;;;;;;;1.00;0.40;;;31.10;52.90;;;;;;5023880;28;86878;-51
2022/08/24 10:33:56;;;;;;;1.43;0.63;;;31.10;52.90;;;;;;5023510;28;86314;-51
2022/08/24 10:36:49;;;;;;;1.17;0.30;;;31.20;53.00;;;;;;5022591;28;89282;-52
2022/08/24 10:39:42;;;;;;;0.73;0.70;;;31.20;53.00;;;;;;5022243;28;88945;-51
2022/08/24 10:45:42;;;;;;;0.57;0.50;;;31.20;52.90;;;;;;4991286;28;87268;-51
2022/08/24 10:48:37;;;;;;;0.80;0.40;;;31.20;52.90;;;;;;5023098;28;88055;-51
2022/08/24 10:51:09;;;;;;;0.30;0.30;;;31.30;52.90;;;;;;5022973;28;88983;-51
2022/08/24 10:53:38;;;;;;;0.77;0.60;;;31.30;52.80;;;;;;5023116;28;87125;-52
2022/08/24 10:56:10;;;;;;;0.43;0.30;;;31.30;52.90;;;;;;5023018;28;86881;-52
2022/08/24 10:58:45;;;;;;;0.40;0.40;;;31.30;52.70;;;;;;5022598;28;89121;-51
2022/08/24 11:01:22;;;;;;;0.30;0.30;;;31.40;52.70;;;;;;5022774;28;88985;-51
2022/08/24 11:04:03;;;;;;;0.40;0.40;;;31.40;52.70;;;;;;5022287;28;87098;-51
2022/08/24 11:06:32;;;;;;;0.67;0.60;;;31.40;52.60;;;;;;5021356;28;87191;-51
2022/08/24 11:09:04;;;;;;;0.73;0.40;;;31.50;52.70;;;;;;5021734;28;90231;-51
2022/08/24 11:11:35;;;;;;;1.37;0.60;;;31.50;52.50;;;;;;5019458;28;88783;-52
2022/08/24 11:14:09;;;;;;;1.83;0.70;;;31.40;52.30;;;;;;5032976;28;87034;-51
2022/08/24 11:16:38;;;;;;;0.30;0.30;;;31.40;52.20;;;;;;5030346;28;87124;-52
2022/08/24 11:19:12;;;;;;;1.63;0.60;;;31.30;52.60;;;;;;5029316;28;87976;-51
2022/08/24 11:21:50;;;;;;;0.80;0.80;;;31.40;52.00;;;;;;5019944;28;89114;-51
2022/08/24 11:24:28;;;;;;;0.90;0.50;;;31.40;52.00;;;;;;5019953;28;86990;-51
2022/08/24 11:26:59;;;;;;;0.30;0.30;;;31.40;51.70;;;;;;5025109;28;86236;-51
2022/08/24 11:29:30;;;;;;;1.10;0.40;;;31.50;51.60;;;;;;5022874;28;88024;-51
2022/08/24 11:31:58;;;;;;;0.40;0.40;;;31.50;51.50;;;;;;5029021;28;88941;-52
2022/08/24 11:34:35;;;;;;;0.37;0.37;;;31.50;51.60;;;;;;5028797;28;88059;-52
2022/08/24 11:37:04;;;;;;;0.53;0.53;;;31.50;51.40;;;;;;5023049;28;87038;-51
2022/08/24 11:39:34;;;;;;;0.50;0.43;;;31.50;51.40;;;;;;5024547;28;89075;-51
2022/08/24 11:42:10;;;;;;;4.13;0.50;;;31.50;51.30;;;;;;5023366;28;88897;-51
2022/08/24 11:44:45;;;;;;;1.90;0.40;;;31.60;51.30;;;;;;5019117;28;87010;-52
2022/08/24 11:47:26;;;;;;;0.50;0.50;;;31.60;51.30;;;;;;5022143;28;86994;-52
2022/08/24 11:49:58;;;;;;;1.40;0.70;;;31.60;51.70;;;;;;5019119;28;88183;-52
2022/08/24 11:52:33;;;;;;;1.63;0.70;;;31.60;51.10;;;;;;5021782;28;88863;-52
2022/08/24 11:55:04;;;;;;;1.67;0.57;;;31.60;51.00;;;;;;5019837;28;86955;-52
2022/08/24 11:57:39;;;;;;;1.30;0.77;;;31.60;51.00;;;;;;5021491;28;86890;-52
2022/08/24 12:00:17;;;;;;;1.20;0.77;;;31.60;50.80;;;;;;5018727;28;90088;-52
2022/08/24 12:02:51;;;;;;;0.57;0.50;;;31.60;50.80;;;;;;5021621;28;89779;-52
2022/08/24 12:05:24;;;;;;;2.07;0.73;;;31.60;50.70;;;;;;5025390;28;87116;-52
2022/08/24 12:08:02;;;;;;;0.70;0.40;;;31.60;50.70;;;;;;5017976;28;86966;-52
2022/08/24 12:10:36;;;;;;;0.40;0.40;;;31.60;50.70;;;;;;5020874;28;89098;-52
2022/08/24 12:13:09;;;;;;;0.67;0.40;;;31.60;50.60;;;;;;5017553;28;88875;-52
2022/08/24 12:15:43;;;;;;;0.50;0.50;;;31.70;50.70;;;;;;5017270;28;86992;-52
2022/08/24 12:18:23;;;;;;;0.50;0.50;;;31.60;50.60;;;;;;5017874;28;87807;-52
2022/08/24 12:20:52;;;;;;;0.50;0.50;;;31.70;50.60;;;;;;5019373;28;89160;-51
2022/08/24 12:23:24;;;;;;;0.60;0.60;;;31.60;50.70;;;;;;5020976;28;88929;-51
2022/08/24 12:26:04;;;;;;;0.50;0.30;;;31.60;50.60;;;;;;5018009;28;88069;-52
2022/08/24 12:28:36;;;;;;;0.60;0.40;;;31.60;50.60;;;;;;5020930;28;87046;-52
2022/08/24 12:31:12;;;;;;;0.67;0.43;;;31.70;50.60;;;;;;5020763;28;89101;-52
2022/08/24 12:33:45;;;;;;;0.97;0.67;;;31.60;50.50;;;;;;5021979;28;88777;-52
2022/08/24 12:36:18;;;;;;;0.63;0.43;;;31.60;50.70;;;;;;5025697;28;87327;-52
2022/08/24 12:38:48;;;;;;;0.60;0.60;;;31.70;50.60;;;;;;5027928;28;86921;-52
2022/08/24 12:41:19;;;;;;;0.77;0.50;;;31.70;50.60;;;;;;5038077;28;89151;-53
2022/08/24 12:43:51;;;;;;;0.60;0.60;;;31.70;50.40;;;;;;5030830;27;88980;-53
2022/08/24 12:46:21;;;;;;;0.40;0.40;;;31.70;50.40;;;;;;5038501;28;86963;-52
2022/08/24 12:48:52;;;;;;;0.53;0.40;;;31.70;50.40;;;;;;5040443;28;87234;-52
2022/08/24 12:51:24;;;;;;;0.60;0.50;;;31.70;50.30;;;;;;5040265;28;90224;-52
2022/08/24 12:54:14;;;;;;;0.50;0.50;;;31.80;50.40;;;;;;5037610;28;90111;-52
2022/08/24 12:57:04;;;;;;;0.97;0.60;;;31.80;50.30;;;;;;5039561;28;87464;-53
2022/08/24 12:59:36;;;;;;;0.50;0.40;;;31.80;50.30;;;;;;5037834;28;87071;-53
2022/08/24 13:02:06;;;;;;;0.60;0.60;;;31.80;50.20;;;;;;5040499;28;89089;-53
2022/08/24 13:04:38;;;;;;;1.20;0.57;;;31.80;50.20;;;;;;5038190;28;88850;-53
2022/08/24 13:07:08;;;;;;;0.40;0.40;;;31.80;50.20;;;;;;5040410;28;87090;-53
2022/08/24 13:09:37;;;;;;;0.73;0.60;;;31.80;50.20;;;;;;5038756;28;86087;-53
2022/08/24 13:12:45;;;;;;;2.93;0.60;;;31.80;50.20;;;;;;5040561;28;89145;-52
2022/08/24 13:15:27;;;;;;;0.50;0.40;;;31.80;50.10;;;;;;4972509;28;89009;-51
2022/08/24 13:17:57;;;;;;;0.50;0.50;;;31.80;50.00;;;;;;5037638;28;87878;-51
2022/08/24 13:20:52;;;;;;;2.97;0.80;;;31.90;50.10;;;;;;5040304;27;87180;-52
2022/08/24 13:23:20;;;;;;;2.30;0.80;;;31.90;50.00;;;;;;5038861;28;87463;-52